createdAt,value
2022-12-18T00:01:17.944Z,91.20
2022-12-18T00:03:46.196Z,91.52
2022-12-18T00:06:14.659Z,91.56
2022-12-18T00:08:43.594Z,91.39
2022-12-18T00:11:14.106Z,91.53
2022-12-18T00:13:42.297Z,91.63
2022-12-18T00:16:12.526Z,92.22
2022-12-18T00:18:40.942Z,92.11
2022-12-18T00:21:11.636Z,92.67
2022-12-18T00:23:41.329Z,92.70
2022-12-18T00:26:13.405Z,92.16
2022-12-18T00:28:40.841Z,92.43
2022-12-18T00:31:11.635Z,92.67
2022-12-18T00:33:39.726Z,92.82
2022-12-18T00:36:09.703Z,92.96
2022-12-18T00:38:37.423Z,92.84
2022-12-18T00:41:05.456Z,92.87
2022-12-18T00:43:34.344Z,93.00
2022-12-18T00:46:01.811Z,93.41
2022-12-18T00:48:29.337Z,93.74
2022-12-18T00:50:56.886Z,93.78
2022-12-18T00:53:24.376Z,92.85
2022-12-18T00:55:51.861Z,92.40
2022-12-18T00:58:19.546Z,91.74
2022-12-18T01:00:48.342Z,92.15
2022-12-18T01:03:16.331Z,92.24
2022-12-18T01:05:44.007Z,92.83
2022-12-18T01:08:11.548Z,93.60
2022-12-18T01:10:41.880Z,94.01
2022-12-18T01:13:09.363Z,93.84
2022-12-18T01:15:37.544Z,94.06
2022-12-18T01:18:06.350Z,94.31
2022-12-18T01:20:34.153Z,94.61
2022-12-18T01:23:01.623Z,95.43
2022-12-18T01:25:29.082Z,95.78
2022-12-18T01:27:56.518Z,95.30
2022-12-18T01:30:23.933Z,94.91
2022-12-18T01:32:51.372Z,94.70
2022-12-18T01:35:20.179Z,94.23
2022-12-18T01:37:47.866Z,92.97
2022-12-18T01:40:15.314Z,93.63
2022-12-18T01:42:42.738Z,94.01
2022-12-18T01:45:29.175Z,95.53
2022-12-18T01:47:59.498Z,96.08
2022-12-18T01:50:32.686Z,94.51
2022-12-18T01:53:03.983Z,93.94
2022-12-18T01:55:37.078Z,93.86
2022-12-18T01:58:05.614Z,93.81
2022-12-18T02:00:33.438Z,93.75
2022-12-18T02:03:01.643Z,93.65
2022-12-18T02:05:42.752Z,93.75
2022-12-18T02:08:14.902Z,94.89
2022-12-18T02:10:50.093Z,94.88
2022-12-18T02:13:26.097Z,94.69
2022-12-18T02:16:01.835Z,94.92
2022-12-18T02:18:34.565Z,95.03
2022-12-18T02:21:10.387Z,94.31
2022-12-18T02:23:51.602Z,93.91
2022-12-18T02:26:25.969Z,93.83
2022-12-18T02:28:56.527Z,93.93
2022-12-18T02:31:27.648Z,93.87
2022-12-18T02:33:58.284Z,93.53
2022-12-18T02:36:27.401Z,92.87
2022-12-18T02:38:56.649Z,92.00
2022-12-18T02:41:26.229Z,92.24
2022-12-18T02:43:58.233Z,92.68
2022-12-18T02:46:32.014Z,93.26
2022-12-18T02:49:10.876Z,93.41
2022-12-18T02:51:49.984Z,93.35
2022-12-18T02:54:29.370Z,93.30
2022-12-18T02:57:00.210Z,93.53
2022-12-18T02:59:33.823Z,93.46
2022-12-18T03:02:08.149Z,93.19
2022-12-18T03:04:44.602Z,93.45
2022-12-18T03:07:17.821Z,92.97
2022-12-18T03:09:51.163Z,93.12
2022-12-18T03:12:24.809Z,93.24
2022-12-18T03:14:56.402Z,93.37
2022-12-18T03:17:27.431Z,93.20
2022-12-18T03:19:58.504Z,93.21
2022-12-18T03:22:31.166Z,92.84
2022-12-18T03:25:00.155Z,92.72
2022-12-18T03:27:32.102Z,92.51
2022-12-18T03:30:08.211Z,92.86
2022-12-18T03:32:43.109Z,92.45
2022-12-18T03:35:13.824Z,92.95
2022-12-18T03:37:41.265Z,92.68
2022-12-18T03:40:09.732Z,92.23
2022-12-18T03:42:48.823Z,91.88
2022-12-18T03:45:24.019Z,92.11
2022-12-18T03:48:00.545Z,92.50
2022-12-18T03:50:43.861Z,91.97
2022-12-18T03:53:24.878Z,91.92
2022-12-18T03:55:53.647Z,91.70
2022-12-18T03:58:26.381Z,91.63
2022-12-18T04:00:57.851Z,91.84
2022-12-18T04:03:27.356Z,92.30
2022-12-18T04:05:57.201Z,92.94
2022-12-18T04:08:26.509Z,92.89
2022-12-18T04:10:53.998Z,92.33
2022-12-18T04:13:26.726Z,91.95
2022-12-18T04:15:54.347Z,90.49
2022-12-18T04:18:21.943Z,90.95
2022-12-18T04:20:49.361Z,91.72
2022-12-18T04:23:16.802Z,92.37
2022-12-18T04:25:44.297Z,92.55
2022-12-18T04:28:11.700Z,92.31
2022-12-18T04:30:40.556Z,92.08
2022-12-18T04:33:11.571Z,91.34
2022-12-18T04:35:39.066Z,90.92
2022-12-18T04:38:07.522Z,90.09
2022-12-18T04:40:34.958Z,89.72
2022-12-18T04:43:02.482Z,89.92
2022-12-18T04:45:30.014Z,89.46
2022-12-18T04:48:00.188Z,88.99
2022-12-18T04:50:27.831Z,88.90
2022-12-18T04:52:55.257Z,88.47
2022-12-18T04:55:28.211Z,88.29
2022-12-18T04:57:55.804Z,87.91
2022-12-18T05:00:23.687Z,87.69
2022-12-18T05:02:51.259Z,87.39
2022-12-18T05:05:20.157Z,87.62
2022-12-18T05:07:47.598Z,87.47
2022-12-18T05:10:15.030Z,87.89
2022-12-18T05:12:56.405Z,87.57
2022-12-18T05:15:23.828Z,87.58
2022-12-18T05:17:51.283Z,87.58
2022-12-18T05:20:20.482Z,87.53
2022-12-18T05:22:47.892Z,87.41
2022-12-18T05:25:15.921Z,86.85
2022-12-18T05:27:43.482Z,86.89
2022-12-18T05:30:11.747Z,87.13
2022-12-18T05:32:39.744Z,86.82
2022-12-18T05:35:09.930Z,86.54
2022-12-18T05:37:42.969Z,86.31
2022-12-18T05:40:12.615Z,85.96
2022-12-18T05:42:40.186Z,85.90
2022-12-18T05:45:08.476Z,85.34
2022-12-18T05:47:35.920Z,84.99
2022-12-18T05:50:03.351Z,84.96
2022-12-18T05:52:30.788Z,84.83
2022-12-18T05:55:00.275Z,85.23
2022-12-18T05:57:27.721Z,85.17
2022-12-18T05:59:55.235Z,84.86
2022-12-18T06:02:22.874Z,85.08
2022-12-18T06:04:50.405Z,84.84
2022-12-18T06:07:18.366Z,84.93
2022-12-18T06:09:45.777Z,84.93
2022-12-18T06:12:14.568Z,85.17
2022-12-18T06:14:41.968Z,84.09
2022-12-18T06:17:09.391Z,83.91
2022-12-18T06:19:37.038Z,83.80
2022-12-18T06:22:04.545Z,83.50
2022-12-18T06:24:32.028Z,83.32
2022-12-18T06:26:59.746Z,83.50
2022-12-18T06:29:28.508Z,83.31
2022-12-18T06:31:56.014Z,83.67
2022-12-18T06:34:23.468Z,83.90
2022-12-18T06:36:50.886Z,83.60
2022-12-18T06:39:18.367Z,83.80
2022-12-18T06:41:45.825Z,83.71
2022-12-18T06:44:13.277Z,83.59
2022-12-18T06:46:42.474Z,84.02
2022-12-18T06:49:10.657Z,83.93
2022-12-18T06:51:38.112Z,83.92
2022-12-18T06:54:05.705Z,84.18
2022-12-18T06:56:33.156Z,83.93
2022-12-18T06:59:00.611Z,84.21
2022-12-18T07:01:28.434Z,83.89
2022-12-18T07:03:58.793Z,83.45
2022-12-18T07:06:27.885Z,83.65
2022-12-18T07:08:56.168Z,83.70
2022-12-18T07:11:23.817Z,83.20
2022-12-18T07:13:51.333Z,83.75
2022-12-18T07:16:24.753Z,84.16
2022-12-18T07:18:53.081Z,84.15
2022-12-18T07:21:23.243Z,84.18
2022-12-18T07:23:50.882Z,83.59
2022-12-18T07:26:20.541Z,84.03
2022-12-18T07:28:48.510Z,84.19
2022-12-18T07:31:18.171Z,84.10
2022-12-18T07:33:46.373Z,84.80
2022-12-18T07:36:14.110Z,84.57
2022-12-18T07:38:43.083Z,84.76
2022-12-18T07:41:13.122Z,84.77
2022-12-18T07:43:42.039Z,84.82
2022-12-18T07:46:10.950Z,85.42
2022-12-18T07:48:40.565Z,85.88
2022-12-18T07:51:09.193Z,85.99
2022-12-18T07:53:38.201Z,86.36
2022-12-18T07:58:58.246Z,85.88
2022-12-18T08:01:26.255Z,86.07
2022-12-18T08:03:53.836Z,85.62
2022-12-18T08:06:23.342Z,85.24
2022-12-18T08:08:53.215Z,84.98
2022-12-18T08:11:22.025Z,84.85
2022-12-18T08:13:49.528Z,85.24
2022-12-18T08:16:17.338Z,85.33
2022-12-18T08:18:44.817Z,85.20
2022-12-18T08:21:13.790Z,85.10
2022-12-18T08:23:43.330Z,85.54
2022-12-18T08:26:11.601Z,85.49
2022-12-18T08:28:40.788Z,85.57
2022-12-18T08:31:09.170Z,85.13
2022-12-18T08:33:39.052Z,85.56
2022-12-18T08:36:07.626Z,85.49
2022-12-18T08:38:35.044Z,85.71
2022-12-18T08:41:03.305Z,85.15
2022-12-18T08:43:48.706Z,85.26
2022-12-18T08:46:18.091Z,85.88
2022-12-18T08:48:46.000Z,85.62
2022-12-18T08:51:13.753Z,85.44
2022-12-18T08:53:41.721Z,84.86
2022-12-18T08:56:09.790Z,85.39
2022-12-18T08:58:37.248Z,84.99
2022-12-18T09:01:06.130Z,85.04
2022-12-18T09:03:35.273Z,85.29
2022-12-18T09:06:02.761Z,84.75
2022-12-18T09:08:30.823Z,84.54
2022-12-18T09:10:58.610Z,84.61
2022-12-18T09:13:26.080Z,84.64
2022-12-18T09:15:56.080Z,83.77
2022-12-18T09:18:25.240Z,84.28
2022-12-18T09:20:54.252Z,83.23
2022-12-18T09:23:22.303Z,82.85
2022-12-18T09:25:50.254Z,81.93
2022-12-18T09:28:20.264Z,81.40
2022-12-18T09:30:49.980Z,81.26
2022-12-18T09:33:17.781Z,80.43
2022-12-18T09:35:47.053Z,80.50
2022-12-18T09:38:18.727Z,80.17
2022-12-18T09:40:48.209Z,80.00
2022-12-18T09:43:18.999Z,80.46
2022-12-18T09:45:51.533Z,79.67
2022-12-18T09:48:25.408Z,79.83
2022-12-18T09:50:55.805Z,79.97
2022-12-18T09:53:30.033Z,80.13
2022-12-18T09:55:58.990Z,80.33
2022-12-18T09:58:32.389Z,80.88
2022-12-18T10:00:59.838Z,80.80
2022-12-18T10:03:27.626Z,80.37
2022-12-18T10:06:04.390Z,81.13
2022-12-18T10:08:44.148Z,80.71
2022-12-18T10:11:27.075Z,80.40
2022-12-18T10:13:58.771Z,80.77
2022-12-18T10:16:37.654Z,80.01
2022-12-18T10:19:21.858Z,79.94
2022-12-18T10:21:56.998Z,80.06
2022-12-18T10:24:35.202Z,79.39
2022-12-18T10:27:14.541Z,79.98
2022-12-18T10:29:43.149Z,79.65
2022-12-18T10:32:17.126Z,79.33
2022-12-18T10:34:47.616Z,79.18
2022-12-18T10:37:19.476Z,78.83
2022-12-18T10:40:06.301Z,78.78
2022-12-18T10:42:33.793Z,77.76
2022-12-18T10:45:03.831Z,78.14
2022-12-18T10:47:31.423Z,78.75
2022-12-18T10:49:58.965Z,78.37
2022-12-18T10:52:28.059Z,77.18
2022-12-18T10:55:00.035Z,77.70
2022-12-18T10:57:34.105Z,78.38
2022-12-18T11:00:22.022Z,77.58
2022-12-18T11:02:50.009Z,76.79
2022-12-18T11:05:33.774Z,76.64
2022-12-18T11:08:02.621Z,77.26
2022-12-18T11:10:34.317Z,76.74
2022-12-18T11:13:13.643Z,76.49
2022-12-18T11:15:42.946Z,76.60
2022-12-18T11:18:19.656Z,76.26
2022-12-18T11:20:58.360Z,75.71
2022-12-18T11:23:27.012Z,75.70
2022-12-18T11:26:04.759Z,75.95
2022-12-18T11:28:41.883Z,75.75
2022-12-18T11:31:23.423Z,76.58
2022-12-18T11:36:49.987Z,76.55
2022-12-18T11:39:20.914Z,76.80
2022-12-18T11:42:12.329Z,76.93
2022-12-18T11:44:51.868Z,76.55
2022-12-18T11:47:29.239Z,75.98
2022-12-18T11:49:57.863Z,76.45
2022-12-18T11:52:29.077Z,76.97
2022-12-18T11:55:00.588Z,76.58
2022-12-18T11:57:40.158Z,77.27
2022-12-18T12:00:17.084Z,76.08
2022-12-18T12:03:24.349Z,76.07
2022-12-18T12:06:06.399Z,76.29
2022-12-18T12:08:46.137Z,75.43
2022-12-18T12:11:24.535Z,75.47
2022-12-18T12:14:03.658Z,75.52
2022-12-18T12:16:37.134Z,76.18
2022-12-18T12:19:20.390Z,76.09
2022-12-18T12:21:55.770Z,76.15
2022-12-18T12:24:39.138Z,75.59
2022-12-18T12:27:15.932Z,75.77
2022-12-18T12:30:00.797Z,75.77
2022-12-18T12:32:44.420Z,75.56
2022-12-18T12:35:23.774Z,75.79
2022-12-18T12:38:01.924Z,76.25
2022-12-18T12:43:28.116Z,76.05
2022-12-18T12:46:02.828Z,75.50
2022-12-18T12:48:40.193Z,76.04
2022-12-18T12:51:14.798Z,75.62
2022-12-18T12:53:43.486Z,75.12
2022-12-18T12:56:16.407Z,75.81
2022-12-18T12:58:53.916Z,74.96
2022-12-18T13:01:31.592Z,74.06
2022-12-18T13:04:10.756Z,74.96
2022-12-18T13:06:45.299Z,74.80
2022-12-18T13:09:13.879Z,74.73
2022-12-18T13:12:00.451Z,73.80
2022-12-18T13:14:32.247Z,72.37
2022-12-18T13:17:31.754Z,72.70
2022-12-18T13:20:08.945Z,71.66
2022-12-18T13:22:38.614Z,71.85
2022-12-18T13:25:31.864Z,71.25
2022-12-18T13:28:05.857Z,70.58
2022-12-18T13:30:46.238Z,70.17
2022-12-18T13:34:02.030Z,70.02
2022-12-18T13:36:33.657Z,69.79
2022-12-18T13:39:35.270Z,70.06
2022-12-18T13:42:58.994Z,70.06
2022-12-18T13:45:47.921Z,69.87
2022-12-18T13:48:21.140Z,70.25
2022-12-18T13:50:55.578Z,70.74
2022-12-18T13:53:28.399Z,70.57
2022-12-18T13:55:56.629Z,71.02
2022-12-18T13:58:24.143Z,71.47
2022-12-18T14:00:51.645Z,71.77
2022-12-18T14:03:23.294Z,72.22
2022-12-18T14:05:58.325Z,72.43
2022-12-18T14:08:29.188Z,72.78
2022-12-18T14:10:57.258Z,73.21
2022-12-18T14:13:29.957Z,73.50
2022-12-18T14:15:58.517Z,74.07
2022-12-18T14:18:38.460Z,74.14
2022-12-18T14:21:08.725Z,75.05
2022-12-18T14:23:39.007Z,74.63
2022-12-18T14:26:24.023Z,75.17
2022-12-18T14:28:51.805Z,74.98
2022-12-18T14:31:20.818Z,75.20
2022-12-18T14:33:48.667Z,75.52
2022-12-18T14:36:20.337Z,76.04
2022-12-18T14:38:51.609Z,76.41
2022-12-18T14:41:20.910Z,76.60
2022-12-18T14:43:49.772Z,76.51
2022-12-18T14:46:30.957Z,76.53
2022-12-18T14:48:58.934Z,77.34
2022-12-18T14:51:29.024Z,77.87
2022-12-18T14:53:58.471Z,77.87
2022-12-18T14:56:28.308Z,78.25
2022-12-18T14:58:58.483Z,78.27
2022-12-18T15:01:29.106Z,78.76
2022-12-18T15:03:58.583Z,79.45
2022-12-18T15:06:34.365Z,79.99
2022-12-18T15:09:05.202Z,79.97
2022-12-18T15:11:45.201Z,80.24
2022-12-18T15:14:33.788Z,80.43
2022-12-18T15:17:03.971Z,80.78
2022-12-18T15:19:37.705Z,81.03
2022-12-18T15:22:07.011Z,81.60
2022-12-18T15:24:35.193Z,82.21
2022-12-18T15:27:02.827Z,82.29
2022-12-18T15:29:30.240Z,82.54
2022-12-18T15:32:03.306Z,83.25
2022-12-18T15:34:31.504Z,83.53
2022-12-18T15:36:58.937Z,83.97
2022-12-18T15:39:27.689Z,84.06
2022-12-18T15:42:12.934Z,84.54
2022-12-18T15:44:40.586Z,84.45
2022-12-18T15:47:13.793Z,84.95
2022-12-18T15:49:41.371Z,84.94
2022-12-18T15:52:14.142Z,85.15
2022-12-18T15:55:00.325Z,85.40
2022-12-18T15:57:27.829Z,85.22
2022-12-18T15:59:58.765Z,85.14
2022-12-18T16:02:27.068Z,85.37
2022-12-18T16:04:55.307Z,85.61
2022-12-18T16:07:25.064Z,85.69
2022-12-18T16:09:55.150Z,85.82
2022-12-18T16:12:26.168Z,86.25
2022-12-18T16:14:53.629Z,85.96
2022-12-18T16:17:21.101Z,86.06
2022-12-18T16:19:48.529Z,86.12
2022-12-18T16:22:22.802Z,85.92
2022-12-18T16:24:50.962Z,85.86
2022-12-18T16:27:20.029Z,86.09
2022-12-18T16:29:47.831Z,86.20
2022-12-18T16:32:17.688Z,86.25
2022-12-18T16:34:45.986Z,86.60
2022-12-18T16:37:15.609Z,87.12
2022-12-18T16:39:43.686Z,86.86
2022-12-18T16:42:17.030Z,86.71
2022-12-18T16:44:47.184Z,87.13
2022-12-18T16:47:15.627Z,87.34
2022-12-18T16:49:43.222Z,86.72
2022-12-18T16:52:10.709Z,87.58
2022-12-18T16:54:38.425Z,87.47
2022-12-18T16:57:06.181Z,87.63
2022-12-18T16:59:33.874Z,87.52
2022-12-18T17:02:03.114Z,87.44
2022-12-18T17:04:30.689Z,87.67
2022-12-18T17:06:58.151Z,87.89
2022-12-18T17:09:26.075Z,87.68
2022-12-18T17:11:54.424Z,88.03
2022-12-18T17:14:23.629Z,87.72
2022-12-18T17:17:07.372Z,87.84
2022-12-18T17:19:40.165Z,87.80
2022-12-18T17:22:08.011Z,88.21
2022-12-18T17:24:35.749Z,88.34
2022-12-18T17:27:03.665Z,88.00
2022-12-18T17:29:31.294Z,88.35
2022-12-18T17:32:01.354Z,88.27
2022-12-18T17:34:28.998Z,88.30
2022-12-18T17:36:58.848Z,88.56
2022-12-18T17:39:26.358Z,88.87
2022-12-18T17:41:53.917Z,88.84
2022-12-18T17:44:21.630Z,88.82
2022-12-18T17:46:49.348Z,89.49
2022-12-18T17:49:17.220Z,89.46
2022-12-18T17:51:44.773Z,89.13
2022-12-18T17:54:14.079Z,89.25
2022-12-18T17:56:41.755Z,89.35
2022-12-18T17:59:09.534Z,89.09
2022-12-18T18:01:43.781Z,89.16
2022-12-18T18:04:12.143Z,88.87
2022-12-18T18:06:39.998Z,88.85
2022-12-18T18:09:09.234Z,88.98
2022-12-18T18:12:03.263Z,88.68
2022-12-18T18:14:31.099Z,88.70
2022-12-18T18:16:59.852Z,89.04
2022-12-18T18:19:33.950Z,88.96
2022-12-18T18:22:03.126Z,88.90
2022-12-18T18:24:31.742Z,89.35
2022-12-18T18:27:00.881Z,89.22
2022-12-18T18:29:31.165Z,89.30
2022-12-18T18:31:59.411Z,88.85
2022-12-18T18:34:29.600Z,89.47
2022-12-18T18:36:57.077Z,89.10
2022-12-18T18:39:24.942Z,88.99
2022-12-18T18:41:52.654Z,89.10
2022-12-18T18:44:29.295Z,88.78
2022-12-18T18:46:58.249Z,88.44
2022-12-18T18:49:27.406Z,88.57
2022-12-18T18:51:56.625Z,88.72
2022-12-18T18:54:24.583Z,88.41
2022-12-18T18:59:41.593Z,88.80
2022-12-18T19:02:11.661Z,88.32
2022-12-18T19:04:43.100Z,88.16
2022-12-18T19:07:15.041Z,88.64
2022-12-18T19:09:55.697Z,88.64
2022-12-18T19:12:40.923Z,88.67
2022-12-18T19:15:10.665Z,88.78
2022-12-18T19:17:41.558Z,88.49
2022-12-18T19:20:12.524Z,89.15
2022-12-18T19:22:40.026Z,88.86
2022-12-18T19:25:09.263Z,89.04
2022-12-18T19:27:39.926Z,88.90
2022-12-18T19:30:08.810Z,89.08
2022-12-18T19:32:37.966Z,88.92
2022-12-18T19:35:06.223Z,88.91
2022-12-18T19:37:35.825Z,88.85
2022-12-18T19:40:06.081Z,89.03
2022-12-18T19:42:42.724Z,88.82
2022-12-18T19:45:11.276Z,89.20
2022-12-18T19:47:43.131Z,89.25
2022-12-18T19:50:11.404Z,89.01
2022-12-18T19:52:39.059Z,89.03
2022-12-18T19:55:07.091Z,89.07
2022-12-18T19:57:34.842Z,88.65
2022-12-18T20:00:02.541Z,88.69
2022-12-18T20:02:31.053Z,88.86
2022-12-18T20:05:00.264Z,88.46
2022-12-18T20:07:27.843Z,88.60
2022-12-18T20:10:01.371Z,88.83
2022-12-18T20:12:33.215Z,88.80
2022-12-18T20:15:02.144Z,89.27
2022-12-18T20:17:33.956Z,89.09
2022-12-18T20:20:02.964Z,89.35
2022-12-18T20:22:30.592Z,89.71
2022-12-18T20:24:58.271Z,89.68
2022-12-18T20:27:26.063Z,89.56
2022-12-18T20:29:53.631Z,89.22
2022-12-18T20:32:23.560Z,89.42
2022-12-18T20:34:51.316Z,89.32
2022-12-18T20:37:20.950Z,89.46
2022-12-18T20:39:49.004Z,89.50
2022-12-18T20:42:17.160Z,89.21
2022-12-18T20:44:45.650Z,89.87
2022-12-18T20:47:13.394Z,89.82
2022-12-18T20:49:44.473Z,89.63
2022-12-18T20:52:13.326Z,89.60
2022-12-18T20:54:42.260Z,89.69
2022-12-18T20:57:09.843Z,89.52
2022-12-18T20:59:37.516Z,89.80
2022-12-18T21:02:05.300Z,89.76
2022-12-18T21:04:33.116Z,89.52
2022-12-18T21:07:02.989Z,89.68
2022-12-18T21:09:35.934Z,90.27
2022-12-18T21:12:29.533Z,90.07
2022-12-18T21:15:01.589Z,90.11
2022-12-18T21:17:29.548Z,90.23
2022-12-18T21:19:59.322Z,90.61
2022-12-18T21:22:27.257Z,90.80
2022-12-18T21:24:54.966Z,91.11
2022-12-18T21:27:23.846Z,91.25
2022-12-18T21:29:52.245Z,91.63
2022-12-18T21:32:20.296Z,92.16
2022-12-18T21:34:48.580Z,92.05
2022-12-18T21:37:16.326Z,92.33
2022-12-18T21:39:43.784Z,92.33
2022-12-18T21:42:30.481Z,93.12
2022-12-18T21:44:59.463Z,92.83
2022-12-18T21:47:26.962Z,92.77
2022-12-18T21:49:54.915Z,93.06
2022-12-18T21:52:28.616Z,93.43
2022-12-18T21:55:06.571Z,93.40
2022-12-18T21:57:36.298Z,93.69
2022-12-18T22:00:06.060Z,93.21
2022-12-18T22:02:33.575Z,93.73
2022-12-18T22:05:01.185Z,94.16
2022-12-18T22:07:29.628Z,94.32
2022-12-18T22:09:57.092Z,94.18
2022-12-18T22:12:41.693Z,94.35
2022-12-18T22:15:18.634Z,94.13
2022-12-18T22:17:49.853Z,94.41
2022-12-18T22:20:17.581Z,94.48
2022-12-18T22:22:47.911Z,94.40
2022-12-18T22:25:15.587Z,94.85
2022-12-18T22:27:43.469Z,95.32
2022-12-18T22:30:14.563Z,95.23
2022-12-18T22:32:42.045Z,95.55
2022-12-18T22:35:15.558Z,95.83
2022-12-18T22:37:43.565Z,95.92
2022-12-18T22:40:23.928Z,96.12
2022-12-18T22:42:52.913Z,96.26
2022-12-18T22:45:21.692Z,96.25
2022-12-18T22:47:49.210Z,96.36
2022-12-18T22:50:16.671Z,96.83
2022-12-18T22:52:44.145Z,96.40
2022-12-18T22:55:11.618Z,96.85
2022-12-18T22:57:40.285Z,96.72
2022-12-18T23:00:12.956Z,96.75
2022-12-18T23:02:41.887Z,97.15
2022-12-18T23:05:09.699Z,97.40
2022-12-18T23:07:37.141Z,97.66
2022-12-18T23:10:05.187Z,97.89
2022-12-18T23:12:32.721Z,98.13
2022-12-18T23:15:02.151Z,98.77
2022-12-18T23:17:29.644Z,99.17
2022-12-18T23:19:58.490Z,99.47
2022-12-18T23:22:25.924Z,99.98
2022-12-18T23:24:53.351Z,100.00
2022-12-18T23:27:20.862Z,100.00
2022-12-18T23:29:48.277Z,100.00
2022-12-18T23:32:16.796Z,100.00
2022-12-18T23:34:44.257Z,100.00
2022-12-18T23:37:13.030Z,100.00
2022-12-18T23:39:40.475Z,100.00
2022-12-18T23:42:07.915Z,100.00
2022-12-18T23:44:35.525Z,100.00
2022-12-18T23:47:04.339Z,100.00
2022-12-18T23:49:31.930Z,100.00
2022-12-18T23:51:59.539Z,100.00
2022-12-18T23:54:33.204Z,100.00
2022-12-18T23:57:01.310Z,100.00
2022-12-18T23:59:28.827Z,100.00
